Time;durP1;ratioP1;P1;durP2;ratioP2;P2;SDS_P1;SDS_P2;PMS_P1;PMS_P2;Temp;Humidity;BMP_temperature;BMP_pressure;BME280_temperature;BME280_humidity;BME280_pressure;Samples;Min_cycle;Max_cycle;Signal;HPM_P1;HPM_P2
2023/03/23 00:01:21;;;;;;;0.98;0.38;;;10.80;99.90;;;;;;5015143;28;20375;-83
2023/03/23 00:04:03;;;;;;;0.00;0.00;;;10.80;99.90;;;;;;5006027;28;20038;-83
2023/03/23 00:06:34;;;;;;;0.10;0.10;;;10.80;99.90;;;;;;5002088;28;20486;-83
2023/03/23 00:09:02;;;;;;;0.70;0.03;;;10.80;99.90;;;;;;5029511;28;20084;-82
2023/03/23 00:11:31;;;;;;;0.00;0.00;;;10.80;99.90;;;;;;5027753;28;20042;-83
2023/03/23 00:14:00;;;;;;;0.00;0.00;;;10.70;99.90;;;;;;5015570;28;20040;-82
2023/03/23 00:16:38;;;;;;;0.10;0.10;;;10.80;99.90;;;;;;5029368;28;20034;-82
2023/03/23 00:19:09;;;;;;;;;;;10.70;99.90;;;;;;5035161;28;20056;-83
2023/03/23 00:21:38;;;;;;;0.00;0.00;;;10.80;99.90;;;;;;5015231;28;19905;-83
2023/03/23 00:24:16;;;;;;;0.00;0.00;;;10.70;99.90;;;;;;5024233;28;20025;-83
2023/03/23 00:26:46;;;;;;;0.00;0.00;;;10.70;99.90;;;;;;5005328;28;20045;-82
2023/03/23 00:29:22;;;;;;;0.03;0.03;;;10.70;99.90;;;;;;5010345;28;20029;-83
2023/03/23 00:31:50;;;;;;;0.00;0.00;;;10.70;99.90;;;;;;5022395;28;20037;-83
2023/03/23 00:34:20;;;;;;;0.00;0.00;;;10.60;99.90;;;;;;5012926;28;20050;-83
2023/03/23 00:36:58;;;;;;;0.00;0.00;;;10.70;99.90;;;;;;5037071;28;20075;-83
2023/03/23 00:39:48;;;;;;;0.00;0.00;;;10.70;99.90;;;;;;5015586;28;20022;-83
2023/03/23 00:42:16;;;;;;;0.00;0.00;;;10.70;99.90;;;;;;5013579;28;20044;-83
2023/03/23 00:44:48;;;;;;;0.00;0.00;;;10.70;99.90;;;;;;5026909;28;20021;-83
2023/03/23 00:47:23;;;;;;;0.00;0.00;;;10.70;99.90;;;;;;5026215;28;20277;-83
2023/03/23 00:49:55;;;;;;;0.00;0.00;;;10.70;99.90;;;;;;5014080;28;20541;-83
2023/03/23 00:52:30;;;;;;;0.00;0.00;;;10.70;99.90;;;;;;5019094;28;20056;-83
2023/03/23 00:55:00;;;;;;;0.00;0.00;;;10.60;99.90;;;;;;5028234;28;20034;-82
2023/03/23 00:57:32;;;;;;;0.00;0.00;;;10.60;99.90;;;;;;5014321;28;20025;-82
2023/03/23 01:00:09;;;;;;;0.00;0.00;;;10.60;99.90;;;;;;5020132;28;20417;-83
2023/03/23 01:02:40;;;;;;;0.00;0.00;;;10.60;99.90;;;;;;5018183;28;20139;-83
2023/03/23 01:05:06;;;;;;;0.00;0.00;;;10.60;99.90;;;;;;5016972;28;20025;-83
2023/03/23 01:07:39;;;;;;;0.00;0.00;;;10.60;99.90;;;;;;5013832;28;20025;-83
2023/03/23 01:10:07;;;;;;;0.52;0.22;;;10.60;99.90;;;;;;5012440;28;20586;-83
2023/03/23 01:12:45;;;;;;;0.00;0.00;;;10.60;99.90;;;;;;5030227;28;20026;-83
2023/03/23 01:15:16;;;;;;;0.00;0.00;;;10.60;99.90;;;;;;5018520;28;20029;-83
2023/03/23 01:17:43;;;;;;;0.00;0.00;;;10.60;99.90;;;;;;5019528;28;20029;-83
2023/03/23 01:20:15;;;;;;;0.00;0.00;;;10.60;99.90;;;;;;5011378;28;20099;-83
2023/03/23 01:22:47;;;;;;;0.00;0.00;;;10.60;99.90;;;;;;5028688;28;20604;-83
2023/03/23 01:25:15;;;;;;;0.00;0.00;;;10.60;99.90;;;;;;5011366;28;20093;-83
2023/03/23 01:27:55;;;;;;;0.00;0.00;;;10.60;99.90;;;;;;5014472;28;20025;-83
2023/03/23 01:30:25;;;;;;;0.10;0.10;;;10.60;99.90;;;;;;5013777;28;20121;-82
2023/03/23 01:32:55;;;;;;;0.00;0.00;;;10.70;99.90;;;;;;5014169;28;20474;-83
2023/03/23 01:35:26;;;;;;;0.00;0.00;;;10.70;99.90;;;;;;5011318;28;20045;-83
2023/03/23 01:37:54;;;;;;;0.00;0.00;;;10.60;99.90;;;;;;5028424;28;20026;-82
2023/03/23 01:40:29;;;;;;;0.00;0.00;;;10.60;99.90;;;;;;5011990;28;20075;-83
2023/03/23 01:42:57;;;;;;;0.00;0.00;;;10.50;99.90;;;;;;5015737;28;20033;-83
2023/03/23 01:45:30;;;;;;;0.00;0.00;;;10.50;99.90;;;;;;5026366;28;20372;-82
2023/03/23 01:48:06;;;;;;;0.20;0.00;;;10.50;99.90;;;;;;5023395;28;20814;-83
2023/03/23 01:50:40;;;;;;;0.10;0.10;;;10.50;99.90;;;;;;5016353;28;20038;-83
2023/03/23 01:53:16;;;;;;;0.00;0.00;;;10.50;99.90;;;;;;5034128;28;20030;-82
2023/03/23 01:55:48;;;;;;;0.00;0.00;;;10.40;99.90;;;;;;5013236;28;20020;-83
2023/03/23 01:58:19;;;;;;;0.00;0.00;;;10.40;99.90;;;;;;5008593;28;20025;-82
2023/03/23 02:00:48;;;;;;;0.00;0.00;;;10.40;99.90;;;;;;5013603;28;20017;-83
2023/03/23 02:03:16;;;;;;;0.00;0.00;;;10.30;99.90;;;;;;5031946;28;20029;-84
2023/03/23 02:05:43;;;;;;;0.00;0.00;;;10.30;99.90;;;;;;5011166;28;20115;-83
2023/03/23 02:08:12;;;;;;;0.00;0.00;;;10.30;99.90;;;;;;5010280;28;20033;-82
2023/03/23 02:10:48;;;;;;;0.22;0.20;;;10.30;99.90;;;;;;5031792;28;20030;-83
2023/03/23 02:13:19;;;;;;;0.00;0.00;;;10.30;99.90;;;;;;5011058;28;20014;-82
2023/03/23 02:15:55;;;;;;;0.00;0.00;;;10.30;99.90;;;;;;5031249;28;20028;-83
2023/03/23 02:18:40;;;;;;;1.13;1.00;;;10.30;99.90;;;;;;5014518;28;20029;-83
2023/03/23 02:21:30;;;;;;;0.00;0.00;;;10.30;99.90;;;;;;5016203;28;20018;-83
2023/03/23 02:24:30;;;;;;;0.00;0.00;;;10.20;99.90;;;;;;5035491;28;20029;-83
2023/03/23 02:27:39;;;;;;;0.00;0.00;;;10.20;99.90;;;;;;5012996;28;20093;-82
2023/03/23 02:30:14;;;;;;;0.00;0.00;;;10.20;99.90;;;;;;5013024;28;20117;-83
2023/03/23 02:33:11;;;;;;;0.00;0.00;;;10.10;99.90;;;;;;5006134;28;20022;-83
2023/03/23 02:36:16;;;;;;;0.00;0.00;;;10.10;99.90;;;;;;5012397;28;20025;-83
2023/03/23 02:39:05;;;;;;;0.00;0.00;;;10.10;99.90;;;;;;4998900;28;20039;-83
2023/03/23 02:41:41;;;;;;;0.00;0.00;;;10.00;99.90;;;;;;5005661;28;20049;-83
2023/03/23 02:44:08;;;;;;;0.00;0.00;;;9.90;99.90;;;;;;5013550;28;20032;-83
2023/03/23 02:46:52;;;;;;;0.00;0.00;;;9.90;99.90;;;;;;5010887;28;20024;-83
2023/03/23 02:49:19;;;;;;;0.00;0.00;;;9.80;99.90;;;;;;5014718;28;20064;-82
2023/03/23 02:51:48;;;;;;;0.00;0.00;;;9.80;99.90;;;;;;5011220;28;20073;-82
2023/03/23 02:54:16;;;;;;;0.00;0.00;;;9.70;99.90;;;;;;5007085;28;20518;-82
2023/03/23 02:56:51;;;;;;;0.00;0.00;;;9.70;99.90;;;;;;5003158;28;20633;-82
2023/03/23 02:59:22;;;;;;;0.00;0.00;;;9.70;99.90;;;;;;5006352;28;20491;-82
2023/03/23 03:01:57;;;;;;;0.00;0.00;;;9.70;99.90;;;;;;5008020;28;20379;-83
2023/03/23 03:04:28;;;;;;;0.45;0.45;;;9.70;99.90;;;;;;5005913;28;20018;-83
2023/03/23 03:07:02;;;;;;;0.00;0.00;;;9.60;99.90;;;;;;5007715;28;20049;-82
2023/03/23 03:09:58;;;;;;;0.00;0.00;;;9.60;99.90;;;;;;5007211;28;20038;-82
2023/03/23 03:12:53;;;;;;;0.00;0.00;;;9.60;99.90;;;;;;5010099;28;20030;-82
2023/03/23 03:15:29;;;;;;;0.00;0.00;;;9.60;99.90;;;;;;5009952;28;20029;-82
2023/03/23 03:18:27;;;;;;;0.00;0.00;;;9.60;99.90;;;;;;5012226;28;20025;-82
2023/03/23 03:21:04;;;;;;;0.00;0.00;;;9.60;99.90;;;;;;5008995;28;20030;-83
2023/03/23 03:23:34;;;;;;;0.00;0.00;;;9.60;99.90;;;;;;5002636;28;20109;-82
2023/03/23 03:26:05;;;;;;;0.00;0.00;;;9.60;99.90;;;;;;5004090;28;20037;-83
2023/03/23 03:28:34;;;;;;;0.43;0.17;;;9.60;99.90;;;;;;5007173;28;20075;-82
2023/03/23 03:31:07;;;;;;;0.00;0.00;;;9.60;99.90;;;;;;5006471;28;20037;-83
2023/03/23 03:33:35;;;;;;;0.00;0.00;;;9.60;99.90;;;;;;5013593;28;20026;-83
2023/03/23 03:36:08;;;;;;;0.10;0.10;;;9.50;99.90;;;;;;5014234;28;20056;-83
2023/03/23 03:38:49;;;;;;;0.00;0.00;;;9.50;99.90;;;;;;5024798;28;20025;-83
2023/03/23 03:41:16;;;;;;;0.00;0.00;;;9.50;99.90;;;;;;5010418;28;20044;-82
2023/03/23 03:43:44;;;;;;;0.00;0.00;;;9.50;99.90;;;;;;5026884;28;20059;-82
2023/03/23 03:46:14;;;;;;;0.00;0.00;;;9.40;99.90;;;;;;5004647;28;20014;-82
2023/03/23 03:48:59;;;;;;;0.00;0.00;;;9.40;99.90;;;;;;5023931;28;20014;-83
2023/03/23 03:51:30;;;;;;;0.00;0.00;;;9.30;99.90;;;;;;5011538;28;20347;-83
2023/03/23 03:54:01;;;;;;;0.00;0.00;;;9.20;99.90;;;;;;5008989;28;20040;-82
2023/03/23 03:56:28;;;;;;;0.00;0.00;;;9.20;99.90;;;;;;5018175;28;20107;-82
2023/03/23 03:58:55;;;;;;;0.00;0.00;;;9.30;99.90;;;;;;5013682;28;20014;-82
2023/03/23 04:01:24;;;;;;;0.00;0.00;;;9.20;99.90;;;;;;5013358;28;20044;-82
2023/03/23 04:03:51;;;;;;;0.00;0.00;;;9.30;99.90;;;;;;5039760;28;20087;-83
2023/03/23 04:06:19;;;;;;;0.00;0.00;;;9.30;99.90;;;;;;5017260;28;20660;-82
2023/03/23 04:08:45;;;;;;;0.00;0.00;;;9.30;99.90;;;;;;5016219;28;20037;-82
2023/03/23 04:11:14;;;;;;;0.00;0.00;;;9.30;99.90;;;;;;5029300;28;20014;-82
2023/03/23 04:13:41;;;;;;;0.00;0.00;;;9.30;99.90;;;;;;5026143;28;20541;-82
2023/03/23 04:16:13;;;;;;;0.00;0.00;;;9.20;99.90;;;;;;5018831;28;20022;-82
2023/03/23 04:18:38;;;;;;;0.00;0.00;;;9.20;99.90;;;;;;5019120;28;20471;-82
2023/03/23 04:21:07;;;;;;;0.00;0.00;;;9.20;99.90;;;;;;5037907;28;20017;-83
2023/03/23 04:23:36;;;;;;;0.00;0.00;;;9.20;99.90;;;;;;5014326;28;20095;-83
2023/03/23 04:26:03;;;;;;;0.00;0.00;;;9.10;99.90;;;;;;5009939;28;20090;-83
2023/03/23 04:28:35;;;;;;;0.00;0.00;;;9.10;99.90;;;;;;5032618;28;20021;-84
2023/03/23 04:31:03;;;;;;;0.00;0.00;;;9.10;99.90;;;;;;5015757;28;20105;-82
2023/03/23 04:33:30;;;;;;;0.00;0.00;;;9.10;99.90;;;;;;5008352;28;20022;-82
2023/03/23 04:36:06;;;;;;;0.00;0.00;;;9.10;99.90;;;;;;5008700;28;20026;-83
2023/03/23 04:38:33;;;;;;;0.00;0.00;;;9.20;99.90;;;;;;5015562;28;20406;-81
2023/03/23 04:41:01;;;;;;;0.00;0.00;;;9.20;99.90;;;;;;5012185;28;20018;-82
2023/03/23 04:43:29;;;;;;;0.00;0.00;;;9.20;99.90;;;;;;5013432;28;20121;-82
2023/03/23 04:45:57;;;;;;;0.00;0.00;;;9.20;99.90;;;;;;5020098;28;20036;-82
2023/03/23 04:48:39;;;;;;;0.00;0.00;;;9.10;99.90;;;;;;5017206;28;20540;-83
2023/03/23 04:51:06;;;;;;;0.00;0.00;;;9.10;99.90;;;;;;5009270;28;20014;-82
2023/03/23 04:53:35;;;;;;;0.00;0.00;;;9.10;99.90;;;;;;5014441;28;20018;-83
2023/03/23 04:56:04;;;;;;;0.00;0.00;;;9.10;99.90;;;;;;5019148;28;20017;-83
2023/03/23 04:58:33;;;;;;;0.00;0.00;;;9.20;99.90;;;;;;5015388;28;20025;-83
2023/03/23 05:01:00;;;;;;;0.00;0.00;;;9.20;99.90;;;;;;5026982;28;20418;-82
2023/03/23 05:03:27;;;;;;;0.00;0.00;;;9.30;99.90;;;;;;5013479;28;20083;-82
2023/03/23 05:05:55;;;;;;;0.00;0.00;;;9.30;99.90;;;;;;5014139;28;20030;-83
2023/03/23 05:08:26;;;;;;;0.00;0.00;;;9.30;99.90;;;;;;5014174;28;20024;-82
2023/03/23 05:11:00;;;;;;;0.00;0.00;;;9.40;99.90;;;;;;5024809;28;20124;-77
2023/03/23 05:13:28;;;;;;;0.00;0.00;;;9.60;99.90;;;;;;5016220;28;20026;-79
2023/03/23 05:16:05;;;;;;;0.00;0.00;;;10.10;99.90;;;;;;5009360;28;20056;-78
2023/03/23 05:18:33;;;;;;;0.00;0.00;;;10.70;99.90;;;;;;5020795;28;20037;-78
2023/03/23 05:21:03;;;;;;;0.00;0.00;;;11.00;99.90;;;;;;5023335;28;20630;-78
2023/03/23 05:23:35;;;;;;;0.20;0.20;;;11.40;99.90;;;;;;5007675;28;20044;-78
2023/03/23 05:26:02;;;;;;;0.00;0.00;;;11.60;99.90;;;;;;5023251;28;20022;-78
2023/03/23 05:28:30;;;;;;;0.00;0.00;;;11.60;99.90;;;;;;5005299;28;20079;-78
2023/03/23 05:30:59;;;;;;;3.05;0.13;;;11.70;99.90;;;;;;5011623;28;20049;-78
2023/03/23 05:33:25;;;;;;;0.00;0.00;;;11.80;99.90;;;;;;5006107;28;20095;-78
2023/03/23 05:35:55;;;;;;;0.00;0.00;;;11.90;99.90;;;;;;5009399;28;20017;-78
2023/03/23 05:38:27;;;;;;;0.00;0.00;;;12.00;99.90;;;;;;5023350;28;20588;-78
2023/03/23 05:41:00;;;;;;;0.00;0.00;;;12.00;99.90;;;;;;5008911;28;20021;-77
2023/03/23 05:43:26;;;;;;;0.00;0.00;;;12.20;99.90;;;;;;5007250;28;20104;-78
2023/03/23 05:45:53;;;;;;;0.00;0.00;;;12.80;99.90;;;;;;5006476;28;20120;-79
2023/03/23 05:48:20;;;;;;;;;;;13.40;99.90;;;;;;5005015;28;20081;-78
2023/03/23 05:50:51;;;;;;;0.00;0.00;;;14.00;99.90;;;;;;5003903;28;19905;-78
2023/03/23 05:53:17;;;;;;;0.00;0.00;;;14.50;99.90;;;;;;5025092;28;20112;-78
2023/03/23 05:55:44;;;;;;;0.00;0.00;;;14.70;99.90;;;;;;5011133;28;20022;-77
2023/03/23 05:58:10;;;;;;;0.00;0.00;;;14.80;99.90;;;;;;5025348;28;20040;-77
2023/03/23 06:00:37;;;;;;;0.00;0.00;;;14.60;99.90;;;;;;5001033;28;20022;-77
2023/03/23 06:03:05;;;;;;;2.05;0.30;;;14.30;99.90;;;;;;5022170;28;20265;-78
2023/03/23 06:05:32;;;;;;;0.00;0.00;;;14.40;99.90;;;;;;5002914;28;20112;-77
2023/03/23 06:08:00;;;;;;;0.38;0.38;;;14.40;99.90;;;;;;5008287;28;20026;-77
2023/03/23 06:10:32;;;;;;;0.00;0.00;;;14.50;99.90;;;;;;5009155;28;20551;-78
2023/03/23 06:12:58;;;;;;;0.00;0.00;;;14.50;99.90;;;;;;5028644;28;20129;-77
2023/03/23 06:15:24;;;;;;;0.00;0.00;;;14.20;99.90;;;;;;5004556;28;20375;-78
2023/03/23 06:17:55;;;;;;;0.00;0.00;;;14.10;99.90;;;;;;5008245;28;20022;-77
2023/03/23 06:20:27;;;;;;;0.00;0.00;;;13.90;99.90;;;;;;5018773;28;20417;-78
2023/03/23 06:22:53;;;;;;;0.00;0.00;;;13.80;99.90;;;;;;5001078;28;20014;-72
2023/03/23 06:25:19;;;;;;;0.03;0.03;;;13.60;99.90;;;;;;5003761;28;20033;-72
2023/03/23 06:27:46;;;;;;;0.00;0.00;;;13.60;99.90;;;;;;5007900;28;20034;-71
2023/03/23 06:30:14;;;;;;;0.00;0.00;;;14.00;99.90;;;;;;5010202;28;20030;-71
2023/03/23 06:32:41;;;;;;;0.00;0.00;;;14.40;99.90;;;;;;5010130;28;20025;-72
2023/03/23 06:35:09;;;;;;;0.00;0.00;;;14.90;99.90;;;;;;5002209;28;20164;-78
2023/03/23 06:37:37;;;;;;;0.17;0.10;;;15.20;99.90;;;;;;5011414;28;20043;-78
2023/03/23 06:40:06;;;;;;;0.10;0.10;;;15.90;99.20;;;;;;5008877;28;20018;-77
2023/03/23 06:42:32;;;;;;;0.47;0.20;;;17.70;96.00;;;;;;5021349;28;20066;-80
2023/03/23 06:45:04;;;;;;;0.10;0.10;;;19.00;91.60;;;;;;5010246;28;20068;-77
2023/03/23 06:47:37;;;;;;;1.40;0.15;;;19.10;90.20;;;;;;5006948;28;20029;-78
2023/03/23 06:50:04;;;;;;;0.00;0.00;;;19.70;87.60;;;;;;5025363;28;20032;-78
2023/03/23 06:52:34;;;;;;;0.00;0.00;;;19.50;85.40;;;;;;5014180;28;20167;-77
2023/03/23 06:55:00;;;;;;;0.00;0.00;;;18.90;85.70;;;;;;5003180;28;20017;-78
2023/03/23 06:57:27;;;;;;;0.52;0.30;;;18.40;87.10;;;;;;5007823;28;21138;-78
2023/03/23 06:59:54;;;;;;;4.72;0.20;;;18.00;88.30;;;;;;5010521;28;20022;-77
2023/03/23 07:02:26;;;;;;;0.00;0.00;;;17.40;90.40;;;;;;5006729;28;20022;-77
2023/03/23 07:04:56;;;;;;;0.00;0.00;;;17.00;91.20;;;;;;5013615;28;20068;-78
2023/03/23 07:07:23;;;;;;;0.10;0.10;;;16.90;91.40;;;;;;5006307;28;20010;-78
2023/03/23 07:09:48;;;;;;;0.10;0.10;;;16.60;92.00;;;;;;5011615;28;20022;-78
2023/03/23 07:12:22;;;;;;;0.08;0.08;;;16.00;93.10;;;;;;5011994;28;20071;-77
2023/03/23 07:14:51;;;;;;;0.00;0.00;;;15.70;94.10;;;;;;5023647;28;20116;-76
2023/03/23 07:17:16;;;;;;;0.10;0.10;;;15.50;94.90;;;;;;5028516;28;20026;-77
2023/03/23 07:19:45;;;;;;;0.00;0.00;;;15.30;95.80;;;;;;5027687;28;20465;-78
2023/03/23 07:22:10;;;;;;;0.00;0.00;;;15.00;96.80;;;;;;5007997;28;20025;-77
2023/03/23 07:24:39;;;;;;;0.43;0.27;;;14.90;97.40;;;;;;5010357;28;20029;-77
2023/03/23 07:27:09;;;;;;;0.00;0.00;;;14.80;97.90;;;;;;5003477;28;20606;-77
2023/03/23 07:29:38;;;;;;;0.00;0.00;;;14.80;98.20;;;;;;5010450;28;20033;-77
2023/03/23 07:32:10;;;;;;;0.00;0.00;;;14.90;98.20;;;;;;5012214;28;20475;-77
2023/03/23 07:34:37;;;;;;;0.15;0.10;;;14.90;98.00;;;;;;5007928;28;20030;-77
2023/03/23 07:37:03;;;;;;;0.00;0.00;;;15.00;98.00;;;;;;5014517;28;20018;-78
2023/03/23 07:39:36;;;;;;;0.00;0.00;;;15.10;97.70;;;;;;5009939;28;20041;-77
2023/03/23 07:42:03;;;;;;;0.20;0.20;;;14.90;97.80;;;;;;5010092;28;20486;-77
2023/03/23 07:44:35;;;;;;;0.00;0.00;;;15.20;98.10;;;;;;5019894;28;20027;-77
2023/03/23 07:47:07;;;;;;;0.00;0.00;;;15.40;97.30;;;;;;5030397;28;20483;-77
2023/03/23 07:49:35;;;;;;;0.00;0.00;;;15.40;97.10;;;;;;5027647;28;20519;-78
2023/03/23 07:52:02;;;;;;;0.00;0.00;;;15.40;96.90;;;;;;5013411;28;20076;-77
2023/03/23 07:54:35;;;;;;;0.08;0.08;;;15.90;96.40;;;;;;5010582;28;20034;-77
2023/03/23 07:57:12;;;;;;;0.00;0.00;;;16.30;95.30;;;;;;5028158;28;20442;-77
2023/03/23 07:59:38;;;;;;;0.00;0.00;;;16.60;94.60;;;;;;5013064;28;20053;-77
2023/03/23 08:02:05;;;;;;;0.00;0.00;;;16.80;93.90;;;;;;5005470;28;20109;-77
2023/03/23 08:04:39;;;;;;;0.00;0.00;;;16.60;93.90;;;;;;5010454;28;20029;-77
2023/03/23 08:07:06;;;;;;;0.22;0.20;;;16.70;93.60;;;;;;5027258;28;20470;-77
2023/03/23 08:09:32;;;;;;;0.00;0.00;;;16.00;94.00;;;;;;5010964;28;20409;-78
2023/03/23 08:11:58;;;;;;;0.20;0.20;;;15.80;94.50;;;;;;5030004;28;20084;-77
2023/03/23 08:14:27;;;;;;;0.00;0.00;;;16.10;94.40;;;;;;5011581;28;20112;-77
2023/03/23 08:16:58;;;;;;;0.03;0.03;;;16.50;93.90;;;;;;5033280;28;20029;-77
2023/03/23 08:19:28;;;;;;;0.00;0.00;;;16.10;93.70;;;;;;5010172;28;20110;-77
2023/03/23 08:21:53;;;;;;;0.03;0.03;;;16.10;93.90;;;;;;5022256;28;20776;-78
2023/03/23 08:24:19;;;;;;;0.30;0.30;;;16.00;94.40;;;;;;5017532;28;20027;-77
2023/03/23 08:26:52;;;;;;;1.10;0.50;;;15.90;94.70;;;;;;5009498;28;20799;-77
2023/03/23 08:29:17;;;;;;;0.05;0.05;;;15.50;95.20;;;;;;5005907;28;20084;-78
2023/03/23 08:31:46;;;;;;;0.00;0.00;;;15.30;95.80;;;;;;5012142;28;20640;-76
2023/03/23 08:34:15;;;;;;;0.15;0.13;;;15.30;95.60;;;;;;5014588;28;20637;-76
2023/03/23 08:36:43;;;;;;;0.00;0.00;;;15.40;95.50;;;;;;5007263;28;20022;-79
2023/03/23 08:39:17;;;;;;;0.00;0.00;;;16.00;95.30;;;;;;5029600;28;20048;-78
2023/03/23 08:41:47;;;;;;;0.10;0.10;;;17.40;92.70;;;;;;5015381;28;20049;-77
2023/03/23 08:44:31;;;;;;;0.00;0.00;;;18.10;90.60;;;;;;5011597;28;20040;-78
2023/03/23 08:47:09;;;;;;;0.20;0.20;;;19.80;85.10;;;;;;5005729;28;20062;-79
2023/03/23 08:49:36;;;;;;;0.43;0.43;;;22.00;79.50;;;;;;5004330;28;20033;-76
2023/03/23 08:52:05;;;;;;;0.85;0.85;;;25.30;68.40;;;;;;5009921;28;20360;-77
2023/03/23 08:54:33;;;;;;;0.20;0.15;;;27.80;59.60;;;;;;5005961;28;20017;-76
2023/03/23 08:57:02;;;;;;;0.38;0.28;;;29.10;55.20;;;;;;5005109;28;20119;-76
2023/03/23 08:59:28;;;;;;;0.43;0.30;;;30.10;52.60;;;;;;5023233;28;20030;-77
2023/03/23 09:02:00;;;;;;;;;;;30.20;50.30;;;;;;5007036;28;20044;-77
2023/03/23 09:04:26;;;;;;;0.20;0.13;;;29.50;50.40;;;;;;5008451;28;19913;-77
2023/03/23 09:06:58;;;;;;;;;;;28.10;50.80;;;;;;5010839;28;20018;-76
2023/03/23 09:09:24;;;;;;;1.73;0.38;;;30.20;49.70;;;;;;5023892;28;19909;-76
2023/03/23 09:11:50;;;;;;;0.00;0.00;;;32.40;48.50;;;;;;5025862;28;20018;-77
2023/03/23 09:14:16;;;;;;;0.03;0.03;;;32.60;47.00;;;;;;5020034;28;20105;-76
2023/03/23 09:16:46;;;;;;;0.00;0.00;;;33.10;46.10;;;;;;5013127;28;20105;-76
2023/03/23 09:19:12;;;;;;;0.00;0.00;;;33.30;45.00;;;;;;5001724;28;20117;-76
2023/03/23 09:21:45;;;;;;;0.00;0.00;;;33.00;44.50;;;;;;5026690;28;20430;-76
2023/03/23 09:24:25;;;;;;;0.00;0.00;;;32.80;44.90;;;;;;5002576;28;20678;-76
2023/03/23 09:26:58;;;;;;;0.20;0.20;;;30.00;45.90;;;;;;5011849;28;20025;-77
2023/03/23 09:29:26;;;;;;;0.00;0.00;;;28.90;46.90;;;;;;5007955;28;20099;-77
2023/03/23 09:31:55;;;;;;;0.00;0.00;;;28.30;47.80;;;;;;5026980;28;20035;-77
2023/03/23 09:34:29;;;;;;;0.08;0.08;;;28.30;47.60;;;;;;5002094;28;20023;-77
2023/03/23 09:37:04;;;;;;;0.17;0.10;;;31.20;46.80;;;;;;5011085;28;20048;-74
2023/03/23 09:39:38;;;;;;;0.75;0.10;;;31.80;45.10;;;;;;5002327;28;20421;-74
2023/03/23 09:42:26;;;;;;;0.10;0.10;;;32.40;44.90;;;;;;5005432;28;20079;-74
2023/03/23 09:45:36;;;;;;;0.00;0.00;;;31.90;44.40;;;;;;5003496;28;20048;-74
2023/03/23 09:48:23;;;;;;;0.08;0.08;;;30.70;45.10;;;;;;5009461;28;20045;-69
2023/03/23 09:50:55;;;;;;;0.13;0.10;;;31.80;45.50;;;;;;5008141;28;20022;-70
2023/03/23 09:53:34;;;;;;;0.00;0.00;;;33.10;44.70;;;;;;5004062;28;20502;-72
2023/03/23 09:56:02;;;;;;;0.00;0.00;;;34.20;43.40;;;;;;5002747;28;20079;-73
2023/03/23 09:58:37;;;;;;;0.20;0.10;;;33.80;42.90;;;;;;5022481;28;20034;-71
2023/03/23 10:01:08;;;;;;;0.00;0.00;;;31.70;43.60;;;;;;5004537;28;20106;-72
2023/03/23 10:03:42;;;;;;;0.20;0.20;;;32.80;44.10;;;;;;5007689;28;20052;-72
2023/03/23 10:06:12;;;;;;;0.00;0.00;;;33.80;42.70;;;;;;5009018;28;20416;-71
2023/03/23 10:08:44;;;;;;;0.00;0.00;;;33.80;42.00;;;;;;4999911;28;20423;-71
2023/03/23 10:11:26;;;;;;;0.10;0.10;;;33.10;41.50;;;;;;5020624;28;20621;-71
2023/03/23 10:14:02;;;;;;;0.00;0.00;;;33.00;42.80;;;;;;5007445;28;20037;-71
2023/03/23 10:16:48;;;;;;;0.00;0.00;;;32.10;42.90;;;;;;4999009;28;20061;-71
2023/03/23 10:19:41;;;;;;;0.30;0.00;;;28.50;45.30;;;;;;5004684;28;20040;-70
2023/03/23 10:22:13;;;;;;;0.00;0.00;;;28.70;47.20;;;;;;5005335;28;20026;-68
2023/03/23 10:24:48;;;;;;;0.00;0.00;;;31.10;44.70;;;;;;4993938;28;20038;-69
2023/03/23 10:27:25;;;;;;;1.88;0.82;;;31.60;44.00;;;;;;4999439;28;20079;-68
2023/03/23 10:30:01;;;;;;;0.00;0.00;;;30.50;43.40;;;;;;5001834;28;20026;-68
2023/03/23 10:32:50;;;;;;;0.03;0.03;;;30.90;44.50;;;;;;5009824;28;20029;-68
2023/03/23 10:35:28;;;;;;;0.00;0.00;;;30.90;45.20;;;;;;4998722;28;20018;-67
2023/03/23 10:38:11;;;;;;;0.13;0.13;;;31.60;43.90;;;;;;5011067;28;20498;-68
2023/03/23 10:40:48;;;;;;;0.10;0.10;;;32.00;43.10;;;;;;5010136;28;20113;-68
2023/03/23 10:43:14;;;;;;;0.00;0.00;;;31.50;43.70;;;;;;4997835;28;20029;-68
2023/03/23 10:45:43;;;;;;;0.05;0.05;;;32.80;43.50;;;;;;5001595;28;20033;-68
2023/03/23 10:48:21;;;;;;;0.00;0.00;;;32.50;42.90;;;;;;5014847;28;20042;-68
2023/03/23 10:50:53;;;;;;;0.00;0.00;;;30.80;43.60;;;;;;5002909;28;20041;-70
2023/03/23 10:53:49;;;;;;;0.03;0.03;;;31.20;44.50;;;;;;5010946;28;20017;-68
2023/03/23 10:56:33;;;;;;;0.00;0.00;;;32.00;43.80;;;;;;5000503;28;20053;-69
2023/03/23 10:59:00;;;;;;;0.00;0.00;;;32.90;43.20;;;;;;5008090;28;20143;-68
2023/03/23 11:01:31;;;;;;;0.00;0.00;;;31.40;44.10;;;;;;5010601;28;20045;-68
2023/03/23 11:04:00;;;;;;;0.10;0.00;;;32.00;44.00;;;;;;5003190;28;20026;-68
2023/03/23 11:06:33;;;;;;;0.20;0.20;;;31.40;43.30;;;;;;5004599;28;20056;-68
2023/03/23 11:09:03;;;;;;;0.20;0.20;;;28.80;44.70;;;;;;5008254;28;20029;-69
2023/03/23 11:11:32;;;;;;;0.00;0.00;;;27.00;46.90;;;;;;5005446;28;20031;-71
2023/03/23 11:14:13;;;;;;;0.00;0.00;;;25.10;48.70;;;;;;5012280;28;20037;-71
2023/03/23 11:16:50;;;;;;;0.00;0.00;;;24.40;50.90;;;;;;5003971;28;20463;-70
2023/03/23 11:19:24;;;;;;;0.03;0.03;;;24.00;51.90;;;;;;5013375;28;20032;-68
2023/03/23 11:21:53;;;;;;;0.00;0.00;;;24.10;51.60;;;;;;5007930;28;20010;-71
2023/03/23 11:24:22;;;;;;;0.00;0.00;;;23.70;51.80;;;;;;5007502;28;20010;-70
2023/03/23 11:26:49;;;;;;;0.10;0.10;;;23.60;52.10;;;;;;5011075;28;20486;-71
2023/03/23 11:29:19;;;;;;;0.00;0.00;;;23.00;52.70;;;;;;5007283;28;20171;-70
2023/03/23 11:31:52;;;;;;;0.00;0.00;;;23.00;53.20;;;;;;5009199;28;20044;-70
2023/03/23 11:34:53;;;;;;;0.00;0.00;;;23.50;52.70;;;;;;5011993;28;20022;-68
2023/03/23 11:37:32;;;;;;;0.30;0.30;;;24.10;51.70;;;;;;5003580;28;20520;-70
2023/03/23 11:40:15;;;;;;;0.00;0.00;;;24.20;51.60;;;;;;5008412;28;20100;-70
2023/03/23 11:42:55;;;;;;;0.35;0.35;;;24.10;51.80;;;;;;5010025;28;20026;-71
2023/03/23 11:45:35;;;;;;;0.00;0.00;;;24.00;52.10;;;;;;5009443;28;20054;-71
2023/03/23 11:48:26;;;;;;;0.40;0.22;;;23.50;53.00;;;;;;5004595;28;20024;-69
2023/03/23 11:51:26;;;;;;;0.00;0.00;;;23.60;52.80;;;;;;5009984;28;20033;-69
2023/03/23 11:54:21;;;;;;;0.10;0.10;;;23.70;53.10;;;;;;5004739;28;20037;-69
2023/03/23 11:56:47;;;;;;;0.00;0.00;;;23.60;52.80;;;;;;5010330;28;20095;-73
2023/03/23 11:59:16;;;;;;;0.00;0.00;;;23.40;53.40;;;;;;5010385;28;20707;-73
2023/03/23 12:01:56;;;;;;;0.00;0.00;;;23.00;53.00;;;;;;5002915;28;20025;-75
2023/03/23 12:04:23;;;;;;;0.00;0.00;;;22.60;53.50;;;;;;5006689;28;20010;-73
2023/03/23 12:07:11;;;;;;;0.00;0.00;;;22.70;53.50;;;;;;5003971;28;20026;-75
2023/03/23 12:09:49;;;;;;;0.55;0.20;;;22.50;53.70;;;;;;5007751;28;20036;-74
2023/03/23 12:12:47;;;;;;;0.00;0.00;;;22.70;53.70;;;;;;5000807;28;20028;-72
2023/03/23 12:15:19;;;;;;;0.00;0.00;;;22.60;54.10;;;;;;5002026;28;20029;-72
2023/03/23 12:18:13;;;;;;;0.00;0.00;;;22.70;53.90;;;;;;5004733;28;20418;-73
2023/03/23 12:21:10;;;;;;;0.00;0.00;;;22.80;54.20;;;;;;5007400;28;20018;-73
2023/03/23 12:23:59;;;;;;;0.00;0.00;;;23.00;53.80;;;;;;5008364;28;20092;-73
2023/03/23 12:27:01;;;;;;;0.05;0.05;;;23.20;53.50;;;;;;5006006;28;20045;-72
2023/03/23 12:29:45;;;;;;;0.13;0.13;;;23.60;53.50;;;;;;4983830;28;20438;-73
2023/03/23 12:32:21;;;;;;;0.00;0.00;;;23.80;52.80;;;;;;4999970;28;20021;-73
2023/03/23 12:35:05;;;;;;;0.00;0.00;;;24.00;52.50;;;;;;5003724;28;20598;-71
2023/03/23 12:37:31;;;;;;;0.00;0.00;;;24.30;52.50;;;;;;5007318;28;20033;-73
2023/03/23 12:40:21;;;;;;;0.10;0.10;;;23.70;53.40;;;;;;5001557;28;20022;-72
2023/03/23 12:43:12;;;;;;;0.00;0.00;;;23.90;53.70;;;;;;5003082;28;20096;-73
2023/03/23 12:45:59;;;;;;;0.08;0.08;;;23.70;53.40;;;;;;5000219;28;20034;-73
2023/03/23 12:48:39;;;;;;;;;;;23.20;53.60;;;;;;5005438;28;20204;-73
2023/03/23 12:51:14;;;;;;;0.00;0.00;;;23.20;53.60;;;;;;5021073;28;19905;-71
2023/03/23 12:53:49;;;;;;;0.00;0.00;;;23.40;53.90;;;;;;5005674;28;20033;-71
2023/03/23 12:56:24;;;;;;;0.20;0.20;;;23.70;53.80;;;;;;5017514;28;20022;-71
2023/03/23 12:58:58;;;;;;;0.10;0.03;;;23.50;53.40;;;;;;5004779;28;20417;-72
2023/03/23 13:01:38;;;;;;;0.00;0.00;;;23.70;53.60;;;;;;5018749;28;20022;-71
2023/03/23 13:04:27;;;;;;;6.22;0.30;;;23.60;54.00;;;;;;5008198;28;20031;-73
2023/03/23 13:06:52;;;;;;;0.10;0.10;;;23.30;53.90;;;;;;5001450;28;20513;-67
2023/03/23 13:09:38;;;;;;;0.15;0.03;;;23.50;54.20;;;;;;4997621;28;20030;-66
2023/03/23 13:12:08;;;;;;;0.00;0.00;;;23.30;54.20;;;;;;5007233;28;20021;-66
2023/03/23 13:15:05;;;;;;;0.00;0.00;;;22.80;55.10;;;;;;4996302;28;20101;-67
2023/03/23 13:17:44;;;;;;;0.00;0.00;;;22.70;54.90;;;;;;4998513;28;20078;-67
2023/03/23 13:20:31;;;;;;;0.00;0.00;;;22.80;55.30;;;;;;4996971;28;20021;-67
2023/03/23 13:23:16;;;;;;;;;;;22.30;55.50;;;;;;5001640;28;20334;-67